sensor_id;sensor_type;location;lat;lon;timestamp;P1;durP1;ratioP1;P2;durP2;ratioP2
20207;SDS011;10263;48.716;8.760;2023-02-15T00:01:04;13.37;;;8.10;;
20207;SDS011;10263;48.716;8.760;2023-02-15T00:03:31;10.93;;;7.30;;
20207;SDS011;10263;48.716;8.760;2023-02-15T00:05:58;11.97;;;8.10;;
20207;SDS011;10263;48.716;8.760;2023-02-15T00:08:25;12.17;;;8.40;;
20207;SDS011;10263;48.716;8.760;2023-02-15T00:10:52;9.33;;;7.03;;
20207;SDS011;10263;48.716;8.760;2023-02-15T00:13:19;11.57;;;7.43;;
20207;SDS011;10263;48.716;8.760;2023-02-15T00:15:46;10.20;;;7.33;;
20207;SDS011;10263;48.716;8.760;2023-02-15T00:18:15;13.17;;;8.00;;
20207;SDS011;10263;48.716;8.760;2023-02-15T00:20:41;12.70;;;8.43;;
20207;SDS011;10263;48.716;8.760;2023-02-15T00:23:09;16.03;;;9.87;;
20207;SDS011;10263;48.716;8.760;2023-02-15T00:25:35;13.53;;;8.63;;
20207;SDS011;10263;48.716;8.760;2023-02-15T00:28:03;16.73;;;9.37;;
20207;SDS011;10263;48.716;8.760;2023-02-15T00:30:33;15.17;;;9.23;;
20207;SDS011;10263;48.716;8.760;2023-02-15T00:33:00;18.97;;;9.53;;
20207;SDS011;10263;48.716;8.760;2023-02-15T00:35:28;19.80;;;10.63;;
20207;SDS011;10263;48.716;8.760;2023-02-15T00:37:56;19.67;;;11.10;;
20207;SDS011;10263;48.716;8.760;2023-02-15T00:40:23;23.13;;;11.40;;
20207;SDS011;10263;48.716;8.760;2023-02-15T00:42:50;18.33;;;10.53;;
20207;SDS011;10263;48.716;8.760;2023-02-15T00:45:17;13.63;;;8.47;;
20207;SDS011;10263;48.716;8.760;2023-02-15T00:47:46;19.60;;;9.63;;
20207;SDS011;10263;48.716;8.760;2023-02-15T00:50:14;22.93;;;11.40;;
20207;SDS011;10263;48.716;8.760;2023-02-15T00:52:42;14.10;;;9.70;;
20207;SDS011;10263;48.716;8.760;2023-02-15T00:55:09;16.67;;;9.70;;
20207;SDS011;10263;48.716;8.760;2023-02-15T00:57:36;12.07;;;8.53;;
20207;SDS011;10263;48.716;8.760;2023-02-15T01:00:04;16.07;;;9.70;;
20207;SDS011;10263;48.716;8.760;2023-02-15T01:02:32;10.13;;;8.03;;
20207;SDS011;10263;48.716;8.760;2023-02-15T01:05:01;12.87;;;8.43;;
20207;SDS011;10263;48.716;8.760;2023-02-15T01:07:27;15.60;;;7.73;;
20207;SDS011;10263;48.716;8.760;2023-02-15T01:09:56;23.17;;;10.30;;
20207;SDS011;10263;48.716;8.760;2023-02-15T01:12:23;15.00;;;8.70;;
20207;SDS011;10263;48.716;8.760;2023-02-15T01:14:49;12.90;;;8.57;;
20207;SDS011;10263;48.716;8.760;2023-02-15T01:17:18;11.13;;;8.07;;
20207;SDS011;10263;48.716;8.760;2023-02-15T01:19:45;14.87;;;8.23;;
20207;SDS011;10263;48.716;8.760;2023-02-15T01:22:12;13.83;;;8.27;;
20207;SDS011;10263;48.716;8.760;2023-02-15T01:24:39;14.70;;;7.80;;
20207;SDS011;10263;48.716;8.760;2023-02-15T01:27:08;15.23;;;8.87;;
20207;SDS011;10263;48.716;8.760;2023-02-15T01:29:34;9.80;;;8.03;;
20207;SDS011;10263;48.716;8.760;2023-02-15T01:32:01;11.53;;;8.33;;
20207;SDS011;10263;48.716;8.760;2023-02-15T01:34:28;11.60;;;8.00;;
20207;SDS011;10263;48.716;8.760;2023-02-15T01:36:56;12.37;;;8.03;;
20207;SDS011;10263;48.716;8.760;2023-02-15T01:39:22;11.13;;;7.77;;
20207;SDS011;10263;48.716;8.760;2023-02-15T01:41:50;13.03;;;8.63;;
20207;SDS011;10263;48.716;8.760;2023-02-15T01:47:22;12.27;;;7.13;;
20207;SDS011;10263;48.716;8.760;2023-02-15T01:49:54;14.70;;;8.37;;
20207;SDS011;10263;48.716;8.760;2023-02-15T01:52:27;10.10;;;7.13;;
20207;SDS011;10263;48.716;8.760;2023-02-15T01:54:55;14.57;;;7.60;;
20207;SDS011;10263;48.716;8.760;2023-02-15T01:57:23;11.23;;;8.07;;
20207;SDS011;10263;48.716;8.760;2023-02-15T01:59:54;9.93;;;7.90;;
20207;SDS011;10263;48.716;8.760;2023-02-15T02:02:25;11.83;;;7.33;;
20207;SDS011;10263;48.716;8.760;2023-02-15T02:04:54;10.03;;;7.67;;
20207;SDS011;10263;48.716;8.760;2023-02-15T02:07:30;13.23;;;7.17;;
20207;SDS011;10263;48.716;8.760;2023-02-15T02:10:00;9.10;;;6.97;;
20207;SDS011;10263;48.716;8.760;2023-02-15T02:12:28;10.17;;;6.80;;
20207;SDS011;10263;48.716;8.760;2023-02-15T02:14:56;11.90;;;7.13;;
20207;SDS011;10263;48.716;8.760;2023-02-15T02:17:26;11.80;;;6.77;;
20207;SDS011;10263;48.716;8.760;2023-02-15T02:20:28;9.27;;;7.17;;
20207;SDS011;10263;48.716;8.760;2023-02-15T02:23:08;10.70;;;6.73;;
20207;SDS011;10263;48.716;8.760;2023-02-15T02:29:32;10.90;;;6.80;;
20207;SDS011;10263;48.716;8.760;2023-02-15T02:35:28;10.57;;;6.83;;
20207;SDS011;10263;48.716;8.760;2023-02-15T02:38:00;10.73;;;6.83;;
20207;SDS011;10263;48.716;8.760;2023-02-15T02:40:38;9.67;;;6.50;;
20207;SDS011;10263;48.716;8.760;2023-02-15T02:43:17;13.80;;;7.83;;
20207;SDS011;10263;48.716;8.760;2023-02-15T02:45:50;11.33;;;7.27;;
20207;SDS011;10263;48.716;8.760;2023-02-15T02:48:24;9.37;;;6.60;;
20207;SDS011;10263;48.716;8.760;2023-02-15T02:50:53;10.93;;;7.23;;
20207;SDS011;10263;48.716;8.760;2023-02-15T02:53:20;9.93;;;6.77;;
20207;SDS011;10263;48.716;8.760;2023-02-15T02:55:49;14.83;;;8.20;;
20207;SDS011;10263;48.716;8.760;2023-02-15T02:58:20;12.63;;;8.10;;
20207;SDS011;10263;48.716;8.760;2023-02-15T03:00:50;14.13;;;7.27;;
20207;SDS011;10263;48.716;8.760;2023-02-15T03:03:24;12.80;;;8.10;;
20207;SDS011;10263;48.716;8.760;2023-02-15T03:05:54;11.10;;;7.70;;
20207;SDS011;10263;48.716;8.760;2023-02-15T03:08:27;19.80;;;9.27;;
20207;SDS011;10263;48.716;8.760;2023-02-15T03:11:00;12.23;;;7.70;;
20207;SDS011;10263;48.716;8.760;2023-02-15T03:13:29;11.70;;;7.53;;
20207;SDS011;10263;48.716;8.760;2023-02-15T03:15:56;11.13;;;7.70;;
20207;SDS011;10263;48.716;8.760;2023-02-15T03:18:45;11.50;;;7.03;;
20207;SDS011;10263;48.716;8.760;2023-02-15T03:21:19;11.03;;;8.13;;
20207;SDS011;10263;48.716;8.760;2023-02-15T03:23:51;18.80;;;8.57;;
20207;SDS011;10263;48.716;8.760;2023-02-15T03:26:23;26.80;;;11.53;;
20207;SDS011;10263;48.716;8.760;2023-02-15T03:28:52;17.77;;;8.17;;
20207;SDS011;10263;48.716;8.760;2023-02-15T03:31:22;18.43;;;8.43;;
20207;SDS011;10263;48.716;8.760;2023-02-15T03:33:53;9.53;;;6.97;;
20207;SDS011;10263;48.716;8.760;2023-02-15T03:36:24;10.17;;;6.90;;
20207;SDS011;10263;48.716;8.760;2023-02-15T03:38:57;10.63;;;6.70;;
20207;SDS011;10263;48.716;8.760;2023-02-15T03:41:29;11.23;;;6.90;;
20207;SDS011;10263;48.716;8.760;2023-02-15T03:44:02;9.47;;;6.77;;
20207;SDS011;10263;48.716;8.760;2023-02-15T03:46:33;8.30;;;6.27;;
20207;SDS011;10263;48.716;8.760;2023-02-15T03:49:08;9.27;;;6.83;;
20207;SDS011;10263;48.716;8.760;2023-02-15T03:51:39;11.30;;;7.10;;
20207;SDS011;10263;48.716;8.760;2023-02-15T03:54:08;16.03;;;7.83;;
20207;SDS011;10263;48.716;8.760;2023-02-15T03:56:39;12.03;;;7.40;;
20207;SDS011;10263;48.716;8.760;2023-02-15T03:59:27;10.87;;;6.90;;
20207;SDS011;10263;48.716;8.760;2023-02-15T04:02:14;14.73;;;7.37;;
20207;SDS011;10263;48.716;8.760;2023-02-15T04:04:48;15.10;;;7.70;;
20207;SDS011;10263;48.716;8.760;2023-02-15T04:07:15;9.07;;;6.53;;
20207;SDS011;10263;48.716;8.760;2023-02-15T04:09:42;9.87;;;6.60;;
20207;SDS011;10263;48.716;8.760;2023-02-15T04:12:26;10.37;;;7.33;;
20207;SDS011;10263;48.716;8.760;2023-02-15T04:14:53;10.83;;;7.10;;
20207;SDS011;10263;48.716;8.760;2023-02-15T04:17:37;11.60;;;7.10;;
20207;SDS011;10263;48.716;8.760;2023-02-15T04:20:07;9.03;;;6.97;;
20207;SDS011;10263;48.716;8.760;2023-02-15T04:22:52;13.00;;;7.37;;
20207;SDS011;10263;48.716;8.760;2023-02-15T04:25:36;9.47;;;7.00;;
20207;SDS011;10263;48.716;8.760;2023-02-15T04:28:03;11.37;;;8.03;;
20207;SDS011;10263;48.716;8.760;2023-02-15T04:30:32;11.27;;;7.70;;
20207;SDS011;10263;48.716;8.760;2023-02-15T04:32:59;11.43;;;7.33;;
20207;SDS011;10263;48.716;8.760;2023-02-15T04:35:27;10.63;;;7.40;;
20207;SDS011;10263;48.716;8.760;2023-02-15T04:37:56;8.83;;;6.60;;
20207;SDS011;10263;48.716;8.760;2023-02-15T04:40:23;10.57;;;7.33;;
20207;SDS011;10263;48.716;8.760;2023-02-15T04:42:50;12.47;;;8.70;;
20207;SDS011;10263;48.716;8.760;2023-02-15T04:45:17;13.63;;;8.77;;
20207;SDS011;10263;48.716;8.760;2023-02-15T04:47:44;11.57;;;8.03;;
20207;SDS011;10263;48.716;8.760;2023-02-15T04:50:11;10.70;;;7.67;;
20207;SDS011;10263;48.716;8.760;2023-02-15T04:52:39;10.93;;;7.53;;
20207;SDS011;10263;48.716;8.760;2023-02-15T04:55:06;11.10;;;7.63;;
20207;SDS011;10263;48.716;8.760;2023-02-15T04:57:33;11.03;;;8.23;;
20207;SDS011;10263;48.716;8.760;2023-02-15T05:00:01;14.93;;;9.17;;
20207;SDS011;10263;48.716;8.760;2023-02-15T05:02:27;12.57;;;8.57;;
20207;SDS011;10263;48.716;8.760;2023-02-15T05:04:54;11.70;;;9.13;;
20207;SDS011;10263;48.716;8.760;2023-02-15T05:07:21;15.60;;;9.77;;
20207;SDS011;10263;48.716;8.760;2023-02-15T05:09:49;13.20;;;9.30;;
20207;SDS011;10263;48.716;8.760;2023-02-15T05:12:16;14.23;;;9.60;;
20207;SDS011;10263;48.716;8.760;2023-02-15T05:14:43;12.80;;;8.80;;
20207;SDS011;10263;48.716;8.760;2023-02-15T05:17:10;14.83;;;8.73;;
20207;SDS011;10263;48.716;8.760;2023-02-15T05:19:37;11.90;;;7.87;;
20207;SDS011;10263;48.716;8.760;2023-02-15T05:22:04;11.67;;;9.13;;
20207;SDS011;10263;48.716;8.760;2023-02-15T05:24:31;13.97;;;8.77;;
20207;SDS011;10263;48.716;8.760;2023-02-15T05:27:16;11.77;;;8.23;;
20207;SDS011;10263;48.716;8.760;2023-02-15T05:30:01;12.27;;;8.83;;
20207;SDS011;10263;48.716;8.760;2023-02-15T05:32:28;12.60;;;8.60;;
20207;SDS011;10263;48.716;8.760;2023-02-15T05:34:54;11.83;;;7.77;;
20207;SDS011;10263;48.716;8.760;2023-02-15T05:37:21;11.80;;;7.70;;
20207;SDS011;10263;48.716;8.760;2023-02-15T05:39:48;10.33;;;8.07;;
20207;SDS011;10263;48.716;8.760;2023-02-15T05:42:17;10.20;;;7.00;;
20207;SDS011;10263;48.716;8.760;2023-02-15T05:44:43;9.20;;;7.17;;
20207;SDS011;10263;48.716;8.760;2023-02-15T05:47:10;13.07;;;8.70;;
20207;SDS011;10263;48.716;8.760;2023-02-15T05:49:37;15.27;;;9.10;;
20207;SDS011;10263;48.716;8.760;2023-02-15T05:52:05;12.73;;;7.93;;
20207;SDS011;10263;48.716;8.760;2023-02-15T05:54:32;10.53;;;7.47;;
20207;SDS011;10263;48.716;8.760;2023-02-15T05:56:58;12.10;;;7.50;;
20207;SDS011;10263;48.716;8.760;2023-02-15T05:59:27;14.77;;;8.03;;
20207;SDS011;10263;48.716;8.760;2023-02-15T06:01:54;10.90;;;7.70;;
20207;SDS011;10263;48.716;8.760;2023-02-15T06:04:21;13.00;;;7.83;;
20207;SDS011;10263;48.716;8.760;2023-02-15T06:06:48;9.87;;;7.37;;
20207;SDS011;10263;48.716;8.760;2023-02-15T06:09:15;10.27;;;7.07;;
20207;SDS011;10263;48.716;8.760;2023-02-15T06:11:43;11.00;;;7.20;;
20207;SDS011;10263;48.716;8.760;2023-02-15T06:14:10;14.60;;;9.53;;
20207;SDS011;10263;48.716;8.760;2023-02-15T06:16:38;9.83;;;7.10;;
20207;SDS011;10263;48.716;8.760;2023-02-15T06:19:05;10.37;;;7.27;;
20207;SDS011;10263;48.716;8.760;2023-02-15T06:21:32;14.17;;;9.10;;
20207;SDS011;10263;48.716;8.760;2023-02-15T06:23:58;11.60;;;8.00;;
20207;SDS011;10263;48.716;8.760;2023-02-15T06:26:26;13.17;;;9.03;;
20207;SDS011;10263;48.716;8.760;2023-02-15T06:28:52;10.93;;;7.10;;
20207;SDS011;10263;48.716;8.760;2023-02-15T06:31:19;10.73;;;7.50;;
20207;SDS011;10263;48.716;8.760;2023-02-15T06:33:48;10.33;;;7.10;;
20207;SDS011;10263;48.716;8.760;2023-02-15T06:36:14;11.70;;;6.93;;
20207;SDS011;10263;48.716;8.760;2023-02-15T06:38:41;9.70;;;6.87;;
20207;SDS011;10263;48.716;8.760;2023-02-15T06:41:08;10.20;;;7.43;;
20207;SDS011;10263;48.716;8.760;2023-02-15T06:43:35;12.40;;;8.80;;
20207;SDS011;10263;48.716;8.760;2023-02-15T06:46:02;10.30;;;7.57;;
20207;SDS011;10263;48.716;8.760;2023-02-15T06:48:29;12.73;;;8.23;;
20207;SDS011;10263;48.716;8.760;2023-02-15T06:50:57;10.87;;;7.37;;
20207;SDS011;10263;48.716;8.760;2023-02-15T06:53:24;11.40;;;8.27;;
20207;SDS011;10263;48.716;8.760;2023-02-15T06:55:51;11.90;;;7.97;;
20207;SDS011;10263;48.716;8.760;2023-02-15T06:58:18;11.93;;;7.27;;
20207;SDS011;10263;48.716;8.760;2023-02-15T07:00:46;10.07;;;7.27;;
20207;SDS011;10263;48.716;8.760;2023-02-15T07:03:14;7.93;;;6.40;;
20207;SDS011;10263;48.716;8.760;2023-02-15T07:05:41;11.63;;;6.57;;
20207;SDS011;10263;48.716;8.760;2023-02-15T07:08:10;7.43;;;6.10;;
20207;SDS011;10263;48.716;8.760;2023-02-15T07:10:36;7.57;;;5.77;;
20207;SDS011;10263;48.716;8.760;2023-02-15T07:13:04;8.10;;;5.87;;
20207;SDS011;10263;48.716;8.760;2023-02-15T07:15:30;7.40;;;5.70;;
20207;SDS011;10263;48.716;8.760;2023-02-15T07:17:57;10.43;;;6.37;;
20207;SDS011;10263;48.716;8.760;2023-02-15T07:20:24;10.30;;;5.57;;
20207;SDS011;10263;48.716;8.760;2023-02-15T07:22:51;8.50;;;5.60;;
20207;SDS011;10263;48.716;8.760;2023-02-15T07:25:19;9.63;;;6.17;;
20207;SDS011;10263;48.716;8.760;2023-02-15T07:27:46;9.57;;;5.20;;
20207;SDS011;10263;48.716;8.760;2023-02-15T07:30:15;7.33;;;5.73;;
20207;SDS011;10263;48.716;8.760;2023-02-15T07:32:42;8.70;;;6.20;;
20207;SDS011;10263;48.716;8.760;2023-02-15T07:35:27;10.23;;;6.20;;
20207;SDS011;10263;48.716;8.760;2023-02-15T07:37:54;8.77;;;6.53;;
20207;SDS011;10263;48.716;8.760;2023-02-15T07:40:23;9.00;;;6.40;;
20207;SDS011;10263;48.716;8.760;2023-02-15T07:42:50;11.83;;;7.27;;
20207;SDS011;10263;48.716;8.760;2023-02-15T07:45:20;14.33;;;6.70;;
20207;SDS011;10263;48.716;8.760;2023-02-15T07:47:47;8.30;;;6.33;;
20207;SDS011;10263;48.716;8.760;2023-02-15T07:50:14;11.23;;;6.83;;
20207;SDS011;10263;48.716;8.760;2023-02-15T07:52:41;11.50;;;7.83;;
20207;SDS011;10263;48.716;8.760;2023-02-15T07:55:08;9.47;;;6.23;;
20207;SDS011;10263;48.716;8.760;2023-02-15T07:57:42;8.90;;;5.93;;
20207;SDS011;10263;48.716;8.760;2023-02-15T08:00:10;8.20;;;5.80;;
20207;SDS011;10263;48.716;8.760;2023-02-15T08:02:38;13.77;;;7.47;;
20207;SDS011;10263;48.716;8.760;2023-02-15T08:05:05;10.50;;;8.47;;
20207;SDS011;10263;48.716;8.760;2023-02-15T08:07:33;13.50;;;9.23;;
20207;SDS011;10263;48.716;8.760;2023-02-15T08:10:00;10.93;;;7.77;;
20207;SDS011;10263;48.716;8.760;2023-02-15T08:12:27;10.03;;;6.73;;
20207;SDS011;10263;48.716;8.760;2023-02-15T08:14:55;8.80;;;7.03;;
20207;SDS011;10263;48.716;8.760;2023-02-15T08:17:22;8.73;;;6.37;;
20207;SDS011;10263;48.716;8.760;2023-02-15T08:19:49;10.73;;;6.73;;
20207;SDS011;10263;48.716;8.760;2023-02-15T08:22:16;8.03;;;6.37;;
20207;SDS011;10263;48.716;8.760;2023-02-15T08:24:43;11.60;;;6.37;;
20207;SDS011;10263;48.716;8.760;2023-02-15T08:27:10;10.43;;;7.07;;
20207;SDS011;10263;48.716;8.760;2023-02-15T08:29:38;9.60;;;6.60;;
20207;SDS011;10263;48.716;8.760;2023-02-15T08:32:09;9.50;;;6.43;;
20207;SDS011;10263;48.716;8.760;2023-02-15T08:34:37;8.23;;;6.20;;
20207;SDS011;10263;48.716;8.760;2023-02-15T08:37:06;8.70;;;6.10;;
20207;SDS011;10263;48.716;8.760;2023-02-15T08:39:34;8.13;;;5.70;;
20207;SDS011;10263;48.716;8.760;2023-02-15T08:42:02;6.60;;;5.17;;
20207;SDS011;10263;48.716;8.760;2023-02-15T08:44:29;7.60;;;5.30;;
20207;SDS011;10263;48.716;8.760;2023-02-15T08:46:56;5.80;;;4.90;;
20207;SDS011;10263;48.716;8.760;2023-02-15T08:49:29;8.23;;;5.23;;
20207;SDS011;10263;48.716;8.760;2023-02-15T08:51:56;9.53;;;5.93;;
20207;SDS011;10263;48.716;8.760;2023-02-15T08:54:23;9.50;;;6.43;;
20207;SDS011;10263;48.716;8.760;2023-02-15T08:56:50;6.33;;;5.23;;
20207;SDS011;10263;48.716;8.760;2023-02-15T08:59:18;6.10;;;4.93;;
20207;SDS011;10263;48.716;8.760;2023-02-15T09:01:46;6.73;;;5.27;;
20207;SDS011;10263;48.716;8.760;2023-02-15T09:04:14;6.43;;;4.90;;
20207;SDS011;10263;48.716;8.760;2023-02-15T09:06:43;6.27;;;5.07;;
20207;SDS011;10263;48.716;8.760;2023-02-15T09:09:11;6.90;;;4.90;;
20207;SDS011;10263;48.716;8.760;2023-02-15T09:11:38;6.43;;;5.30;;
20207;SDS011;10263;48.716;8.760;2023-02-15T09:14:07;6.17;;;4.17;;
20207;SDS011;10263;48.716;8.760;2023-02-15T09:16:38;7.23;;;4.93;;
20207;SDS011;10263;48.716;8.760;2023-02-15T09:19:07;6.40;;;4.60;;
20207;SDS011;10263;48.716;8.760;2023-02-15T09:21:35;8.37;;;4.97;;
20207;SDS011;10263;48.716;8.760;2023-02-15T09:24:05;7.20;;;4.20;;
20207;SDS011;10263;48.716;8.760;2023-02-15T09:26:34;5.00;;;4.40;;
20207;SDS011;10263;48.716;8.760;2023-02-15T09:29:02;5.17;;;3.30;;
20207;SDS011;10263;48.716;8.760;2023-02-15T09:31:30;7.23;;;4.43;;
20207;SDS011;10263;48.716;8.760;2023-02-15T09:33:58;6.33;;;4.20;;
20207;SDS011;10263;48.716;8.760;2023-02-15T09:36:27;7.97;;;4.13;;
20207;SDS011;10263;48.716;8.760;2023-02-15T09:38:56;7.77;;;4.53;;
20207;SDS011;10263;48.716;8.760;2023-02-15T09:41:31;5.53;;;4.03;;
20207;SDS011;10263;48.716;8.760;2023-02-15T09:44:09;9.97;;;4.57;;
20207;SDS011;10263;48.716;8.760;2023-02-15T09:46:47;5.90;;;4.50;;
20207;SDS011;10263;48.716;8.760;2023-02-15T09:49:30;5.57;;;4.83;;
20207;SDS011;10263;48.716;8.760;2023-02-15T09:52:13;4.63;;;3.83;;
20207;SDS011;10263;48.716;8.760;2023-02-15T09:54:56;5.70;;;3.63;;
20207;SDS011;10263;48.716;8.760;2023-02-15T09:57:33;6.40;;;4.00;;
20207;SDS011;10263;48.716;8.760;2023-02-15T10:00:10;4.63;;;3.60;;
20207;SDS011;10263;48.716;8.760;2023-02-15T10:02:51;5.73;;;3.70;;
20207;SDS011;10263;48.716;8.760;2023-02-15T10:05:36;4.83;;;3.67;;
20207;SDS011;10263;48.716;8.760;2023-02-15T10:08:21;5.00;;;4.10;;
20207;SDS011;10263;48.716;8.760;2023-02-15T10:11:01;5.73;;;3.70;;
20207;SDS011;10263;48.716;8.760;2023-02-15T10:13:50;4.83;;;4.30;;
20207;SDS011;10263;48.716;8.760;2023-02-15T10:16:29;4.43;;;3.63;;
20207;SDS011;10263;48.716;8.760;2023-02-15T10:19:04;5.32;;;3.80;;
20207;SDS011;10263;48.716;8.760;2023-02-15T10:21:39;4.18;;;3.63;;
20207;SDS011;10263;48.716;8.760;2023-02-15T10:24:30;5.10;;;3.70;;
20207;SDS011;10263;48.716;8.760;2023-02-15T10:27:11;5.15;;;3.80;;
20207;SDS011;10263;48.716;8.760;2023-02-15T10:29:44;5.43;;;3.40;;
20207;SDS011;10263;48.716;8.760;2023-02-15T10:32:22;4.57;;;3.80;;
20207;SDS011;10263;48.716;8.760;2023-02-15T10:34:51;4.30;;;3.58;;
20207;SDS011;10263;48.716;8.760;2023-02-15T10:40:47;4.15;;;2.90;;
20207;SDS011;10263;48.716;8.760;2023-02-15T10:43:29;3.60;;;3.10;;
20207;SDS011;10263;48.716;8.760;2023-02-15T10:46:09;4.07;;;3.10;;
20207;SDS011;10263;48.716;8.760;2023-02-15T10:48:53;3.80;;;3.08;;
20207;SDS011;10263;48.716;8.760;2023-02-15T10:51:48;4.78;;;3.15;;
20207;SDS011;10263;48.716;8.760;2023-02-15T10:54:27;3.88;;;2.55;;
20207;SDS011;10263;48.716;8.760;2023-02-15T10:57:02;4.72;;;3.00;;
20207;SDS011;10263;48.716;8.760;2023-02-15T10:59:39;3.08;;;2.75;;
20207;SDS011;10263;48.716;8.760;2023-02-15T11:02:23;4.32;;;3.15;;
20207;SDS011;10263;48.716;8.760;2023-02-15T11:05:01;3.42;;;3.13;;
20207;SDS011;10263;48.716;8.760;2023-02-15T11:07:43;3.70;;;3.33;;
20207;SDS011;10263;48.716;8.760;2023-02-15T11:10:18;4.32;;;3.30;;
20207;SDS011;10263;48.716;8.760;2023-02-15T11:12:52;3.63;;;3.33;;
20207;SDS011;10263;48.716;8.760;2023-02-15T11:15:24;4.72;;;3.00;;
20207;SDS011;10263;48.716;8.760;2023-02-15T11:17:59;7.88;;;3.50;;
20207;SDS011;10263;48.716;8.760;2023-02-15T11:20:33;5.35;;;3.72;;
20207;SDS011;10263;48.716;8.760;2023-02-15T11:23:07;4.32;;;3.28;;
20207;SDS011;10263;48.716;8.760;2023-02-15T11:25:41;7.20;;;3.25;;
20207;SDS011;10263;48.716;8.760;2023-02-15T11:28:13;4.50;;;3.20;;
20207;SDS011;10263;48.716;8.760;2023-02-15T11:30:47;4.80;;;3.63;;
20207;SDS011;10263;48.716;8.760;2023-02-15T11:33:20;3.75;;;3.30;;
20207;SDS011;10263;48.716;8.760;2023-02-15T11:35:51;3.85;;;3.50;;
20207;SDS011;10263;48.716;8.760;2023-02-15T11:38:23;4.20;;;3.15;;
20207;SDS011;10263;48.716;8.760;2023-02-15T11:40:54;4.90;;;3.33;;
20207;SDS011;10263;48.716;8.760;2023-02-15T11:43:24;3.40;;;3.10;;
20207;SDS011;10263;48.716;8.760;2023-02-15T11:45:56;3.88;;;3.10;;
20207;SDS011;10263;48.716;8.760;2023-02-15T11:48:24;4.97;;;3.10;;
20207;SDS011;10263;48.716;8.760;2023-02-15T11:50:51;3.85;;;3.10;;
20207;SDS011;10263;48.716;8.760;2023-02-15T11:53:18;3.30;;;3.00;;
20207;SDS011;10263;48.716;8.760;2023-02-15T11:55:49;3.55;;;3.05;;
20207;SDS011;10263;48.716;8.760;2023-02-15T11:58:21;8.20;;;3.83;;
20207;SDS011;10263;48.716;8.760;2023-02-15T12:00:55;3.53;;;3.22;;
20207;SDS011;10263;48.716;8.760;2023-02-15T12:03:29;3.72;;;3.15;;
20207;SDS011;10263;48.716;8.760;2023-02-15T12:06:10;3.55;;;2.85;;
20207;SDS011;10263;48.716;8.760;2023-02-15T12:08:43;3.53;;;3.22;;
20207;SDS011;10263;48.716;8.760;2023-02-15T12:11:19;7.38;;;3.42;;
20207;SDS011;10263;48.716;8.760;2023-02-15T12:13:55;3.95;;;2.72;;
20207;SDS011;10263;48.716;8.760;2023-02-15T12:16:23;3.95;;;2.92;;
20207;SDS011;10263;48.716;8.760;2023-02-15T12:18:53;2.92;;;2.58;;
20207;SDS011;10263;48.716;8.760;2023-02-15T12:21:26;3.40;;;3.10;;
20207;SDS011;10263;48.716;8.760;2023-02-15T12:23:56;3.40;;;3.10;;
20207;SDS011;10263;48.716;8.760;2023-02-15T12:26:26;3.22;;;2.92;;
20207;SDS011;10263;48.716;8.760;2023-02-15T12:28:55;3.55;;;2.72;;
20207;SDS011;10263;48.716;8.760;2023-02-15T12:31:27;3.92;;;2.38;;
20207;SDS011;10263;48.716;8.760;2023-02-15T12:33:59;3.40;;;2.20;;
20207;SDS011;10263;48.716;8.760;2023-02-15T12:36:29;2.55;;;2.35;;
20207;SDS011;10263;48.716;8.760;2023-02-15T12:39:09;4.15;;;3.03;;
20207;SDS011;10263;48.716;8.760;2023-02-15T12:41:45;3.28;;;2.38;;
20207;SDS011;10263;48.716;8.760;2023-02-15T12:44:23;2.60;;;2.15;;
20207;SDS011;10263;48.716;8.760;2023-02-15T12:46:58;2.70;;;2.50;;
20207;SDS011;10263;48.716;8.760;2023-02-15T12:49:29;3.35;;;2.72;;
20207;SDS011;10263;48.716;8.760;2023-02-15T12:51:57;3.10;;;2.53;;
20207;SDS011;10263;48.716;8.760;2023-02-15T12:54:30;2.47;;;2.20;;
20207;SDS011;10263;48.716;8.760;2023-02-15T12:57:14;2.30;;;2.10;;
20207;SDS011;10263;48.716;8.760;2023-02-15T12:59:47;4.70;;;2.42;;
20207;SDS011;10263;48.716;8.760;2023-02-15T13:02:20;2.65;;;2.38;;
20207;SDS011;10263;48.716;8.760;2023-02-15T13:04:50;3.22;;;2.15;;
20207;SDS011;10263;48.716;8.760;2023-02-15T13:07:18;2.92;;;2.20;;
20207;SDS011;10263;48.716;8.760;2023-02-15T13:09:46;2.20;;;2.00;;
20207;SDS011;10263;48.716;8.760;2023-02-15T13:12:23;2.00;;;1.80;;
20207;SDS011;10263;48.716;8.760;2023-02-15T13:14:52;1.92;;;1.58;;
20207;SDS011;10263;48.716;8.760;2023-02-15T13:17:21;1.98;;;1.88;;
20207;SDS011;10263;48.716;8.760;2023-02-15T13:19:56;2.00;;;1.80;;
20207;SDS011;10263;48.716;8.760;2023-02-15T13:22:25;2.17;;;1.90;;
20207;SDS011;10263;48.716;8.760;2023-02-15T13:24:58;2.70;;;1.98;;
20207;SDS011;10263;48.716;8.760;2023-02-15T13:27:39;2.75;;;1.85;;
20207;SDS011;10263;48.716;8.760;2023-02-15T13:30:12;2.30;;;1.60;;
20207;SDS011;10263;48.716;8.760;2023-02-15T13:32:48;4.45;;;1.85;;
20207;SDS011;10263;48.716;8.760;2023-02-15T13:35:18;2.47;;;1.98;;
20207;SDS011;10263;48.716;8.760;2023-02-15T13:37:53;2.88;;;1.98;;
20207;SDS011;10263;48.716;8.760;2023-02-15T13:40:36;1.80;;;1.70;;
20207;SDS011;10263;48.716;8.760;2023-02-15T13:43:15;2.47;;;2.28;;
20207;SDS011;10263;48.716;8.760;2023-02-15T13:45:55;2.42;;;2.03;;
20207;SDS011;10263;48.716;8.760;2023-02-15T13:48:34;2.55;;;2.30;;
20207;SDS011;10263;48.716;8.760;2023-02-15T13:51:11;3.17;;;2.20;;
20207;SDS011;10263;48.716;8.760;2023-02-15T13:56:43;4.00;;;2.38;;
20207;SDS011;10263;48.716;8.760;2023-02-15T13:59:25;2.47;;;2.15;;
20207;SDS011;10263;48.716;8.760;2023-02-15T14:02:23;3.65;;;2.40;;
20207;SDS011;10263;48.716;8.760;2023-02-15T14:05:15;2.50;;;2.30;;
20207;SDS011;10263;48.716;8.760;2023-02-15T14:07:58;3.38;;;2.60;;
20207;SDS011;10263;48.716;8.760;2023-02-15T14:10:38;3.30;;;2.45;;
20207;SDS011;10263;48.716;8.760;2023-02-15T14:13:29;2.67;;;2.45;;
20207;SDS011;10263;48.716;8.760;2023-02-15T14:16:13;3.03;;;2.78;;
20207;SDS011;10263;48.716;8.760;2023-02-15T14:18:44;2.75;;;2.35;;
20207;SDS011;10263;48.716;8.760;2023-02-15T14:21:18;4.40;;;2.83;;
20207;SDS011;10263;48.716;8.760;2023-02-15T14:23:57;3.13;;;2.55;;
20207;SDS011;10263;48.716;8.760;2023-02-15T14:26:36;3.05;;;2.70;;
20207;SDS011;10263;48.716;8.760;2023-02-15T14:29:11;3.45;;;2.35;;
20207;SDS011;10263;48.716;8.760;2023-02-15T14:31:45;2.63;;;2.42;;
20207;SDS011;10263;48.716;8.760;2023-02-15T14:34:18;5.63;;;3.00;;
20207;SDS011;10263;48.716;8.760;2023-02-15T14:36:48;4.78;;;2.80;;
20207;SDS011;10263;48.716;8.760;2023-02-15T14:39:22;4.90;;;2.95;;
20207;SDS011;10263;48.716;8.760;2023-02-15T14:42:15;3.08;;;2.78;;
20207;SDS011;10263;48.716;8.760;2023-02-15T14:44:49;3.38;;;2.85;;
20207;SDS011;10263;48.716;8.760;2023-02-15T14:47:25;3.53;;;3.22;;
20207;SDS011;10263;48.716;8.760;2023-02-15T14:49:58;4.07;;;3.58;;
20207;SDS011;10263;48.716;8.760;2023-02-15T14:52:24;5.05;;;3.60;;
20207;SDS011;10263;48.716;8.760;2023-02-15T14:57:28;4.75;;;3.78;;
20207;SDS011;10263;48.716;8.760;2023-02-15T14:59:58;8.45;;;7.30;;
20207;SDS011;10263;48.716;8.760;2023-02-15T15:02:27;11.18;;;7.88;;
20207;SDS011;10263;48.716;8.760;2023-02-15T15:05:06;15.30;;;11.05;;
20207;SDS011;10263;48.716;8.760;2023-02-15T15:07:36;12.65;;;7.30;;
20207;SDS011;10263;48.716;8.760;2023-02-15T15:19:12;5.20;;;4.18;;
20207;SDS011;10263;48.716;8.760;2023-02-15T15:22:31;7.78;;;4.63;;
20207;SDS011;10263;48.716;8.760;2023-02-15T15:24:59;5.32;;;4.75;;
20207;SDS011;10263;48.716;8.760;2023-02-15T15:27:41;7.10;;;5.05;;
20207;SDS011;10263;48.716;8.760;2023-02-15T15:36:35;7.07;;;4.72;;
20207;SDS011;10263;48.716;8.760;2023-02-15T15:39:37;6.10;;;4.68;;
20207;SDS011;10263;48.716;8.760;2023-02-15T15:42:21;7.10;;;5.10;;